Kostanay West Airport
UAUU : now visible

Airfield :











YOU CAN JOIN US ON...

 
LOGIN :

Register | Disclaimer

   EN    FR    IT 

 









Legend :    VFR   Marginal VFR   IFR   Intensive IFR   Very Intensive IFR
Visi :
Ceiling :
>= 8 km
>= 3000ft
5 to 8 km
1000 to 3000 ft
1500m to 5 km
500 to 1000 ft
800 to 1500m
200 to 500 ft
< 800m
< 200 ft
Symbols :   Thunderstorms  Fog  Heavy snow  Heavy precipitations  Wind > 20 kt






- Airport Elevation : 595 ft
- IATA code : KSN


UAUU - Kostanay West

CURRENT METAR :
  • 031400Z 03006MPS CAVOK M16/M18 Q1035 R33/450052 NOSIG RMK QFE760/1014

EXPIRED METARs :
  • 031330Z 02006MPS CAVOK M16/M18 Q1035 R33/450052 NOSIG RMK QFE760/1014
  • 031300Z 02006MPS CAVOK M16/M18 Q1035 R33/450052 NOSIG RMK QFE760/1014
  • 031230Z 01006MPS CAVOK M16/M18 Q1035 R33/450052 NOSIG RMK QFE760/1014
  • 031200Z 01006MPS CAVOK M16/M18 Q1034 R33/450052 NOSIG RMK QFE760/1013
  • 031130Z 02005MPS CAVOK M15/M17 Q1034 R33/450052 NOSIG RMK QFE760/1013

TAF TAF UAUU
Valid from the 03 at 12:00 until the 03 at 21:00 UTC


031101Z 0312/0321 01005MPS 6000 NSC
TEMPO 0312/0321 3100 BR SCT011
UACC FIR / Asia



MET'MAP, your aeronautical weather chart ! - Copyright ORBIFLY December 2007 - Disclaimer

ORBIFLY MET'MAP TEAM :

Programming & Development : Alexandra Zaïnal
Concept & original design : Baudouin d'Aumeries
Assistance for programming : Marc-Olivier Méhu
Technical & hardware support : Manuel Goepfert

Contact : metmap@orbifly.com




SOURCES & CREDITS :

   NOAA       Earth
Advisory